Velma, Oklahoma
Current Conditions -  °F | °C
As of 9:35 PM on Monday 22 Dec 2014 (Local Time) from KDUC Reporting Station
Broken Clouds Broken Clouds  
Wind Chill: 46°   Ceiling: 12000
Heat Index: 46°   Visibility: NA
Dew Point: 37°   Wind: 3mph
Humidity: 71%   Direction: 240°WSW
Pressure: 29.7"   Gusts: NA
Location:  34.46°N, 97.67°W
Report Text: KDUC 230335Z AUTO 24003KT BKN120 08/03 A2970 RMK AO2 PWINO
Loading
Personal Weather Stations






























Interactive Weather Map New forecast layout! Learn more

10-Day Weather Forecast

Advertisements
Track Severe Weather on mobile